createdAt,value
2022-10-19T00:01:53.542Z,4.50
2022-10-19T00:07:24.997Z,4.50
2022-10-19T00:12:56.824Z,4.47
2022-10-19T00:18:28.567Z,4.47
2022-10-19T00:24:00.266Z,4.47
2022-10-19T00:29:31.987Z,4.47
2022-10-19T00:35:03.892Z,4.44
2022-10-19T00:40:35.840Z,4.47
2022-10-19T00:46:07.680Z,4.47
2022-10-19T00:51:39.764Z,4.47
2022-10-19T00:57:11.534Z,4.47
2022-10-19T01:02:43.365Z,4.47
2022-10-19T01:08:15.131Z,4.47
2022-10-19T01:13:46.868Z,4.50
2022-10-19T01:19:18.754Z,4.50
2022-10-19T01:24:50.718Z,4.50
2022-10-19T01:30:23.444Z,4.54
2022-10-19T01:35:55.282Z,4.54
2022-10-19T01:46:57.208Z,4.54
2022-10-19T01:52:29.014Z,4.54
2022-10-19T01:58:00.615Z,4.54
2022-10-19T02:03:32.478Z,4.54
2022-10-19T02:09:04.176Z,4.54
2022-10-19T02:14:36.279Z,4.54
2022-10-19T02:20:08.170Z,4.54
2022-10-19T02:25:40.098Z,4.54
2022-10-19T02:31:12.015Z,4.54
2022-10-19T02:36:43.560Z,4.54
2022-10-19T02:42:15.188Z,4.54
2022-10-19T02:47:47.361Z,4.54
2022-10-19T02:53:19.192Z,4.54
2022-10-19T02:58:50.895Z,4.50
2022-10-19T03:04:22.503Z,4.54
2022-10-19T03:09:54.372Z,4.54
2022-10-19T03:15:25.926Z,4.54
2022-10-19T03:20:58.929Z,4.50
2022-10-19T03:26:29.430Z,4.54
2022-10-19T03:32:01.325Z,4.54
2022-10-19T03:37:33.445Z,4.54
2022-10-19T03:43:04.962Z,4.54
2022-10-19T03:48:36.983Z,4.54
2022-10-19T03:56:22.049Z,4.54
2022-10-19T04:01:53.301Z,4.54
2022-10-19T04:07:24.637Z,4.57
2022-10-19T04:12:56.079Z,4.57
2022-10-19T04:18:27.914Z,4.57
2022-10-19T04:23:59.763Z,4.57
2022-10-19T04:29:31.448Z,4.54
2022-10-19T04:35:03.232Z,4.57
2022-10-19T04:40:35.149Z,4.57
2022-10-19T04:46:06.939Z,4.54
2022-10-19T04:51:38.759Z,4.54
2022-10-19T04:59:31.975Z,4.57
2022-10-19T05:05:03.464Z,4.54
2022-10-19T05:10:34.996Z,4.54
2022-10-19T05:16:06.643Z,4.54
2022-10-19T05:21:38.786Z,4.54
2022-10-19T05:27:10.570Z,4.54
2022-10-19T05:32:42.154Z,4.54
2022-10-19T05:38:13.507Z,4.54
2022-10-19T05:43:44.975Z,4.54
2022-10-19T05:49:16.430Z,4.50
2022-10-19T05:54:48.037Z,4.50
2022-10-19T06:00:19.760Z,4.50
2022-10-19T06:05:51.774Z,4.54
2022-10-19T06:11:23.601Z,4.54
2022-10-19T06:16:55.301Z,4.57
2022-10-19T06:22:27.210Z,4.54
2022-10-19T06:27:58.883Z,4.57
2022-10-19T06:33:30.525Z,4.57
2022-10-19T06:39:02.004Z,4.61
2022-10-19T06:44:33.765Z,4.57
2022-10-19T06:50:05.382Z,4.61
2022-10-19T06:55:36.850Z,4.57
2022-10-19T07:01:08.616Z,4.61
2022-10-19T07:06:40.460Z,4.61
2022-10-19T07:12:11.926Z,4.61
2022-10-19T07:17:43.495Z,4.61
2022-10-19T07:23:15.614Z,4.61
2022-10-19T07:28:47.215Z,4.61
2022-10-19T07:34:19.090Z,4.61
2022-10-19T07:39:50.558Z,4.64
2022-10-19T07:45:22.236Z,4.61
2022-10-19T07:50:53.612Z,4.64
2022-10-19T07:56:25.342Z,4.64
2022-10-19T08:01:56.696Z,4.64
2022-10-19T08:07:28.558Z,4.67
2022-10-19T08:13:00.616Z,4.67
2022-10-19T08:24:03.895Z,4.67
2022-10-19T08:29:35.650Z,4.71
2022-10-19T08:35:10.765Z,4.71
2022-10-19T08:40:39.226Z,4.74
2022-10-19T08:46:10.921Z,4.74
2022-10-19T08:51:42.274Z,4.74
2022-10-19T08:57:14.459Z,4.78
2022-10-19T09:02:46.455Z,4.78
2022-10-19T09:08:18.221Z,4.78
2022-10-19T09:14:05.928Z,4.81
2022-10-19T09:19:21.692Z,4.84
2022-10-19T09:24:53.932Z,4.84
2022-10-19T09:30:25.850Z,4.84
2022-10-19T09:35:57.737Z,4.84
2022-10-19T09:41:29.679Z,4.88
2022-10-19T09:47:02.103Z,4.88
2022-10-19T09:52:34.022Z,4.88
2022-10-19T09:58:07.357Z,4.88
2022-10-19T10:03:38.998Z,4.88
2022-10-19T10:09:10.982Z,4.91
2022-10-19T10:14:43.017Z,4.95
2022-10-19T10:25:46.328Z,4.98
2022-10-19T10:31:18.361Z,4.98
2022-10-19T10:36:52.952Z,4.98
2022-10-19T10:42:26.656Z,4.98
2022-10-19T10:48:01.294Z,4.98
2022-10-19T10:53:32.518Z,4.98
2022-10-19T10:59:04.392Z,4.98
2022-10-19T11:04:35.997Z,4.98
2022-10-19T11:10:07.741Z,4.98
2022-10-19T11:15:39.265Z,4.98
2022-10-19T11:21:11.003Z,5.01
2022-10-19T11:26:43.605Z,5.01
2022-10-19T11:32:15.232Z,5.01
2022-10-19T11:37:50.105Z,5.05
2022-10-19T11:43:19.696Z,5.05
2022-10-19T11:48:54.179Z,5.08
2022-10-19T11:54:22.516Z,5.08
2022-10-19T11:59:57.586Z,5.08
2022-10-19T12:05:26.512Z,5.08
2022-10-19T12:10:58.427Z,5.05
2022-10-19T12:16:30.558Z,5.01
2022-10-19T12:22:01.754Z,5.01
2022-10-19T12:27:34.224Z,5.01
2022-10-19T12:33:05.367Z,4.98
2022-10-19T12:38:38.762Z,4.98
2022-10-19T12:44:08.673Z,5.01
2022-10-19T12:49:40.361Z,5.01
2022-10-19T12:55:12.189Z,5.01
2022-10-19T13:00:44.199Z,5.05
2022-10-19T13:06:15.603Z,5.05
2022-10-19T13:11:47.529Z,5.05
2022-10-19T13:17:19.314Z,5.05
2022-10-19T13:22:50.952Z,5.11
2022-10-19T13:28:23.061Z,5.08
2022-10-19T13:39:24.631Z,5.05
2022-10-19T13:44:56.565Z,5.05
2022-10-19T13:50:28.378Z,5.08
2022-10-19T13:56:00.494Z,5.05
2022-10-19T14:01:32.791Z,5.05
2022-10-19T14:12:34.241Z,5.01
2022-10-19T14:18:06.252Z,4.98
2022-10-19T14:23:37.855Z,4.98
2022-10-19T14:29:09.738Z,4.98
2022-10-19T14:34:41.627Z,4.95
2022-10-19T14:40:13.435Z,4.95
2022-10-19T14:45:45.293Z,4.91
2022-10-19T14:51:17.320Z,4.91
2022-10-19T14:56:49.135Z,4.88
2022-10-19T15:02:20.959Z,4.88
2022-10-19T15:07:53.120Z,4.88
2022-10-19T15:13:24.900Z,4.84
2022-10-19T15:24:28.934Z,4.81
2022-10-19T15:30:01.066Z,4.81
2022-10-19T15:41:02.774Z,4.81
2022-10-19T15:46:35.038Z,4.81
2022-10-19T15:57:39.631Z,4.78
2022-10-19T16:03:11.169Z,4.74
2022-10-19T16:08:43.160Z,4.71
2022-10-19T16:19:47.350Z,4.71
2022-10-19T16:25:19.500Z,4.67
2022-10-19T16:30:51.468Z,4.67
2022-10-19T16:36:23.309Z,4.64
2022-10-19T16:41:55.572Z,4.64
2022-10-19T16:47:27.610Z,4.61
2022-10-19T16:53:00.298Z,4.61
2022-10-19T16:58:32.450Z,4.61
2022-10-19T17:04:04.632Z,4.61
2022-10-19T17:09:41.729Z,4.61
2022-10-19T17:20:40.536Z,4.57
2022-10-19T17:26:12.328Z,4.57
2022-10-19T17:31:43.849Z,4.57
2022-10-19T17:37:15.853Z,4.54
2022-10-19T17:42:47.808Z,4.50
2022-10-19T17:48:19.847Z,4.50
2022-10-19T17:53:51.926Z,4.47
2022-10-19T17:59:34.953Z,4.47
2022-10-19T18:04:55.465Z,4.47
2022-10-19T18:10:27.202Z,4.44
2022-10-19T18:12:44.703Z,4.44
2022-10-19T18:18:16.226Z,4.44
2022-10-19T18:23:54.124Z,4.44
2022-10-19T18:29:26.104Z,4.40
2022-10-19T18:34:57.870Z,4.40
2022-10-19T18:40:35.386Z,4.40
2022-10-19T18:46:07.303Z,4.37
2022-10-19T18:57:08.740Z,4.37
2022-10-19T19:02:46.710Z,4.37
2022-10-19T19:10:33.171Z,4.37
2022-10-19T19:16:04.981Z,4.34
2022-10-19T19:21:38.210Z,4.34
2022-10-19T19:27:10.182Z,4.34
2022-10-19T19:32:42.318Z,4.34
2022-10-19T19:38:14.389Z,4.34
2022-10-19T19:49:15.789Z,4.30
2022-10-19T19:54:47.713Z,4.30
2022-10-19T20:05:49.482Z,4.30
2022-10-19T20:11:21.783Z,4.27
2022-10-19T20:16:53.780Z,4.23
2022-10-19T20:27:55.247Z,4.23
2022-10-19T20:33:27.164Z,4.23
2022-10-19T20:38:59.198Z,4.20
2022-10-19T20:44:30.810Z,4.20
2022-10-19T20:55:34.387Z,4.17
2022-10-19T21:03:26.310Z,4.17
2022-10-19T21:14:28.493Z,4.13
2022-10-19T21:25:30.910Z,4.13
2022-10-19T21:31:02.855Z,4.10
2022-10-19T21:36:34.813Z,4.10
2022-10-19T21:42:06.653Z,4.10
2022-10-19T21:47:38.557Z,4.10
2022-10-19T21:53:10.300Z,4.06
2022-10-19T21:58:43.043Z,4.06
2022-10-19T22:04:15.064Z,4.06
2022-10-19T22:09:46.670Z,4.06
2022-10-19T22:15:18.632Z,4.06
2022-10-19T22:20:50.306Z,4.06
2022-10-19T22:26:22.262Z,4.06
2022-10-19T22:37:25.541Z,4.03
2022-10-19T22:42:57.709Z,4.03
2022-10-19T22:48:29.959Z,4.03
2022-10-19T22:54:02.043Z,4.03
2022-10-19T22:59:34.473Z,4.03
2022-10-19T23:05:06.806Z,4.00
2022-10-19T23:10:39.011Z,4.00
2022-10-19T23:16:10.877Z,4.00
2022-10-19T23:21:42.897Z,4.00
2022-10-19T23:27:14.674Z,3.96
2022-10-19T23:32:46.269Z,4.00
2022-10-19T23:38:18.069Z,4.00
2022-10-19T23:43:51.717Z,4.00
2022-10-19T23:49:23.500Z,4.03
2022-10-19T23:54:55.305Z,4.06
